createdAt,value
2018-11-11T00:00:18.288Z,11.30
2018-11-11T00:02:49.124Z,11.20
2018-11-11T00:05:18.392Z,11.30
2018-11-11T00:07:47.694Z,11.40
2018-11-11T00:10:16.916Z,11.40
2018-11-11T00:12:46.219Z,11.50
2018-11-11T00:15:16.642Z,11.40
2018-11-11T00:17:47.451Z,11.40
2018-11-11T00:20:16.812Z,11.20
2018-11-11T00:22:47.143Z,11.20
2018-11-11T00:25:16.364Z,11.20
2018-11-11T00:27:45.612Z,11.30
2018-11-11T00:30:16.956Z,11.20
2018-11-11T00:32:46.275Z,11.20
2018-11-11T00:35:15.577Z,11.20
2018-11-11T00:37:44.857Z,11.30
2018-11-11T00:40:15.379Z,11.30
2018-11-11T00:42:45.206Z,11.30
2018-11-11T00:45:15.217Z,11.30
2018-11-11T00:47:45.180Z,11.40
2018-11-11T00:50:14.430Z,11.40
2018-11-11T00:52:43.844Z,11.30
2018-11-11T00:55:14.978Z,11.40
2018-11-11T00:57:44.687Z,11.40
2018-11-11T01:00:17.801Z,11.30
2018-11-11T01:02:47.565Z,11.30
2018-11-11T01:05:18.060Z,11.60
2018-11-11T01:07:48.475Z,11.50
2018-11-11T01:10:19.895Z,11.50
2018-11-11T01:12:49.670Z,11.50
2018-11-11T01:15:19.026Z,11.50
2018-11-11T01:17:48.320Z,11.60
2018-11-11T01:20:18.595Z,11.70
2018-11-11T01:22:47.970Z,11.70
2018-11-11T01:25:18.049Z,11.90
2018-11-11T01:27:47.276Z,11.90
2018-11-11T01:30:16.516Z,11.90
2018-11-11T01:32:45.847Z,12.10
2018-11-11T01:35:16.173Z,12.20
2018-11-11T01:37:45.783Z,12.30
2018-11-11T01:40:15.300Z,12.30
2018-11-11T01:42:44.640Z,12.50
2018-11-11T01:45:20.235Z,12.60
2018-11-11T01:47:49.846Z,12.70
2018-11-11T01:50:19.415Z,13.00
2018-11-11T01:52:48.821Z,13.10
2018-11-11T01:55:18.054Z,13.00
2018-11-11T01:57:47.247Z,12.90
2018-11-11T02:00:18.495Z,12.90
2018-11-11T02:02:48.721Z,12.80
2018-11-11T02:05:18.836Z,12.80
2018-11-11T02:07:48.878Z,12.80
2018-11-11T02:10:18.912Z,12.80
2018-11-11T02:12:48.293Z,13.10
2018-11-11T02:15:18.165Z,13.10
2018-11-11T02:17:47.484Z,13.10
2018-11-11T02:20:20.373Z,13.00
2018-11-11T02:22:52.165Z,13.10
2018-11-11T02:25:21.397Z,13.10
2018-11-11T02:27:50.640Z,13.10
2018-11-11T02:30:21.158Z,13.20
2018-11-11T02:32:50.529Z,13.30
2018-11-11T02:35:19.781Z,13.20
2018-11-11T02:37:49.033Z,13.20
2018-11-11T02:40:19.388Z,13.20
2018-11-11T02:42:49.299Z,13.30
2018-11-11T02:45:19.629Z,13.20
2018-11-11T02:47:48.848Z,13.20
2018-11-11T02:50:19.172Z,13.20
2018-11-11T02:52:48.689Z,13.20
2018-11-11T02:55:18.364Z,13.30
2018-11-11T02:57:47.973Z,13.10
2018-11-11T03:00:19.416Z,12.90
2018-11-11T03:02:48.952Z,13.00
2018-11-11T03:05:18.993Z,13.10
2018-11-11T03:07:48.240Z,13.30
2018-11-11T03:10:18.053Z,13.30
2018-11-11T03:12:48.286Z,13.20
2018-11-11T03:15:17.984Z,13.20
2018-11-11T03:17:47.259Z,13.10
2018-11-11T03:20:16.992Z,13.00
2018-11-11T03:29:33.169Z,13.10
2018-11-11T03:32:02.400Z,12.90
2018-11-11T03:34:31.635Z,12.80
2018-11-11T03:37:00.859Z,12.90
2018-11-11T03:39:30.096Z,12.90
2018-11-11T03:41:59.397Z,12.70
2018-11-11T03:44:28.726Z,12.70
2018-11-11T03:46:58.100Z,12.70
2018-11-11T03:49:27.369Z,12.60
2018-11-11T03:51:56.625Z,12.60
2018-11-11T03:54:25.932Z,12.60
2018-11-11T03:56:55.149Z,12.60
2018-11-11T03:59:24.409Z,12.60
2018-11-11T04:01:54.109Z,12.50
2018-11-11T04:04:23.443Z,12.50
2018-11-11T04:06:52.708Z,12.40
2018-11-11T04:09:21.933Z,12.40
2018-11-11T04:11:51.162Z,12.20
2018-11-11T04:14:20.405Z,12.30
2018-11-11T04:16:49.640Z,12.30
2018-11-11T04:19:18.890Z,12.40
2018-11-11T04:21:48.100Z,12.40
2018-11-11T04:24:18.049Z,12.50
2018-11-11T04:26:47.281Z,12.50
2018-11-11T04:29:16.519Z,12.50
2018-11-11T04:31:45.745Z,12.50
2018-11-11T04:34:15.524Z,12.50
2018-11-11T04:36:44.755Z,12.60
2018-11-11T04:39:14.065Z,12.60
2018-11-11T04:41:43.256Z,12.50
2018-11-11T04:44:12.542Z,12.50
2018-11-11T04:46:41.751Z,12.50
2018-11-11T04:49:10.953Z,12.50
2018-11-11T04:51:40.172Z,12.40
2018-11-11T04:54:11.496Z,12.40
2018-11-11T04:56:40.766Z,12.40
2018-11-11T04:59:10.033Z,12.40
2018-11-11T05:01:39.401Z,12.30
2018-11-11T05:04:08.770Z,12.40
2018-11-11T05:06:38.476Z,12.30
2018-11-11T05:09:10.573Z,12.30
2018-11-11T05:11:40.192Z,12.30
2018-11-11T05:14:09.889Z,12.30
2018-11-11T05:16:39.408Z,12.30
2018-11-11T05:19:10.257Z,12.30
2018-11-11T05:21:39.630Z,12.20
2018-11-11T05:24:08.862Z,12.20
2018-11-11T05:26:38.105Z,12.20
2018-11-11T05:29:07.332Z,12.30
2018-11-11T05:31:36.552Z,12.30
2018-11-11T05:34:05.937Z,12.20
2018-11-11T05:36:35.151Z,12.20
2018-11-11T05:39:05.989Z,12.20
2018-11-11T05:41:35.220Z,12.10
2018-11-11T05:44:04.604Z,12.20
2018-11-11T05:46:33.868Z,12.20
2018-11-11T05:49:03.276Z,12.30
2018-11-11T05:51:32.506Z,12.20
2018-11-11T05:54:02.000Z,12.10
2018-11-11T05:56:31.230Z,12.10
2018-11-11T05:59:01.425Z,12.10
2018-11-11T06:01:30.748Z,11.90
2018-11-11T06:04:00.099Z,11.90
2018-11-11T06:06:29.365Z,12.00
2018-11-11T06:08:58.616Z,12.00
2018-11-11T06:11:28.032Z,12.00
2018-11-11T06:13:58.016Z,11.90
2018-11-11T06:16:27.236Z,12.00
2018-11-11T06:18:56.481Z,12.00
2018-11-11T06:21:25.758Z,12.00
2018-11-11T06:23:55.091Z,11.80
2018-11-11T06:26:24.337Z,11.80
2018-11-11T06:29:00.115Z,11.80
2018-11-11T06:31:29.368Z,11.80
2018-11-11T06:33:58.713Z,11.80
2018-11-11T06:36:27.992Z,11.80
2018-11-11T06:38:57.272Z,11.80
2018-11-11T06:41:26.532Z,11.80
2018-11-11T06:43:55.901Z,11.90
2018-11-11T06:46:25.175Z,12.00
2018-11-11T06:48:54.433Z,11.90
2018-11-11T06:51:23.712Z,11.90
2018-11-11T06:53:53.100Z,11.90
2018-11-11T06:56:22.372Z,11.80
2018-11-11T06:58:51.597Z,11.80
2018-11-11T07:01:20.858Z,11.70
2018-11-11T07:03:56.956Z,11.70
2018-11-11T07:06:26.655Z,11.70
2018-11-11T07:08:55.900Z,11.60
2018-11-11T07:11:25.134Z,11.70
2018-11-11T07:13:54.582Z,11.70
2018-11-11T07:16:23.959Z,11.70
2018-11-11T07:18:53.217Z,11.70
2018-11-11T07:21:22.508Z,11.80
2018-11-11T07:23:51.857Z,11.70
2018-11-11T07:26:21.104Z,11.70
2018-11-11T07:28:50.357Z,11.70
2018-11-11T07:31:19.641Z,11.70
2018-11-11T07:33:48.947Z,11.70
2018-11-11T07:36:18.245Z,11.70
2018-11-11T07:38:47.561Z,11.80
2018-11-11T07:41:16.833Z,11.80
2018-11-11T07:43:46.164Z,11.90
2018-11-11T07:46:15.408Z,11.90
2018-11-11T07:48:44.761Z,11.90
2018-11-11T07:51:14.063Z,11.90
2018-11-11T07:53:43.505Z,11.90
2018-11-11T07:56:12.825Z,11.90
2018-11-11T07:58:42.140Z,11.90
2018-11-11T08:01:11.444Z,12.00
2018-11-11T08:03:40.788Z,12.00
2018-11-11T08:06:10.098Z,12.10
2018-11-11T08:08:39.388Z,12.30
2018-11-11T08:11:19.787Z,12.50
2018-11-11T08:13:49.239Z,12.60
2018-11-11T08:16:18.805Z,12.70
2018-11-11T08:18:48.496Z,12.70
2018-11-11T08:21:17.752Z,12.90
2018-11-11T08:23:47.033Z,13.00
2018-11-11T08:26:16.361Z,13.20
2018-11-11T08:28:45.669Z,13.30
2018-11-11T08:31:14.892Z,13.30
2018-11-11T08:33:44.256Z,13.40
2018-11-11T08:36:13.548Z,13.50
2018-11-11T08:38:42.851Z,13.60
2018-11-11T08:41:12.132Z,13.60
2018-11-11T08:43:41.474Z,13.70
2018-11-11T08:46:10.755Z,13.70
2018-11-11T08:48:40.056Z,13.70
2018-11-11T08:51:09.386Z,13.80
2018-11-11T08:53:38.749Z,13.90
2018-11-11T08:56:08.033Z,14.00
2018-11-11T08:58:37.269Z,14.00
2018-11-11T09:01:06.612Z,14.10
2018-11-11T09:03:35.937Z,14.20
2018-11-11T09:06:05.326Z,14.30
2018-11-11T09:08:34.537Z,14.30
2018-11-11T09:11:03.781Z,14.50
2018-11-11T09:13:33.267Z,14.60
2018-11-11T09:16:02.505Z,14.50
2018-11-11T09:18:31.770Z,14.60
2018-11-11T09:21:01.108Z,14.60
2018-11-11T09:23:30.812Z,14.80
2018-11-11T09:26:00.065Z,14.70
2018-11-11T09:28:29.340Z,14.30
2018-11-11T09:30:58.743Z,14.40
2018-11-11T09:33:28.084Z,14.60
2018-11-11T09:35:57.369Z,14.70
2018-11-11T09:38:26.653Z,14.90
2018-11-11T09:40:56.020Z,15.00
2018-11-11T09:43:25.408Z,14.90
2018-11-11T09:45:54.681Z,15.20
2018-11-11T09:48:24.051Z,15.30
2018-11-11T09:50:53.309Z,15.40
2018-11-11T09:53:22.709Z,15.50
2018-11-11T09:55:52.076Z,15.80
2018-11-11T09:58:21.356Z,15.90
2018-11-11T10:00:50.646Z,15.90
2018-11-11T10:03:25.105Z,15.90
2018-11-11T10:05:59.709Z,15.90
2018-11-11T10:08:36.076Z,16.00
2018-11-11T10:11:14.180Z,15.90
2018-11-11T10:13:51.800Z,15.90
2018-11-11T10:16:28.161Z,15.80
2018-11-11T10:19:16.376Z,15.50
2018-11-11T10:21:53.483Z,15.30
2018-11-11T10:24:32.923Z,15.00
2018-11-11T10:27:10.189Z,14.90
2018-11-11T10:30:48.924Z,14.80
2018-11-11T10:33:33.526Z,14.80
2018-11-11T10:36:07.512Z,15.00
2018-11-11T10:38:45.856Z,15.20
2018-11-11T10:41:27.328Z,15.70
2018-11-11T10:44:00.831Z,15.90
2018-11-11T10:46:38.197Z,16.10
2018-11-11T10:49:08.781Z,16.00
2018-11-11T10:51:38.052Z,16.10
2018-11-11T10:54:07.785Z,16.10
2018-11-11T10:56:37.127Z,16.20
2018-11-11T10:59:06.520Z,16.20
2018-11-11T11:01:41.045Z,16.20
2018-11-11T11:04:10.373Z,16.20
2018-11-11T11:06:44.581Z,16.30
2018-11-11T11:09:14.909Z,16.50
2018-11-11T11:11:44.851Z,16.70
2018-11-11T11:14:14.516Z,17.00
2018-11-11T11:16:43.803Z,17.10
2018-11-11T11:19:13.045Z,17.90
2018-11-11T11:21:42.305Z,18.30
2018-11-11T11:24:11.642Z,17.60
2018-11-11T11:26:40.903Z,17.10
2018-11-11T11:29:10.248Z,17.00
2018-11-11T11:31:39.659Z,17.00
2018-11-11T11:34:08.947Z,17.10
2018-11-11T11:36:38.288Z,17.00
2018-11-11T11:39:09.256Z,17.00
2018-11-11T11:41:38.529Z,17.10
2018-11-11T11:44:08.186Z,17.40
2018-11-11T11:46:37.424Z,17.80
2018-11-11T11:49:06.708Z,18.00
2018-11-11T11:51:35.956Z,18.10
2018-11-11T11:54:05.405Z,18.00
2018-11-11T11:56:34.756Z,17.90
2018-11-11T11:59:04.050Z,18.10
2018-11-11T12:01:33.365Z,18.10
2018-11-11T12:04:02.673Z,18.20
2018-11-11T12:06:32.004Z,18.40
2018-11-11T12:09:01.348Z,18.50
2018-11-11T12:11:30.679Z,18.60
2018-11-11T12:14:00.456Z,18.40
2018-11-11T12:16:29.904Z,18.80
2018-11-11T12:18:59.133Z,19.20
2018-11-11T12:21:28.448Z,19.20
2018-11-11T12:23:58.128Z,19.10
2018-11-11T12:26:27.424Z,19.00
2018-11-11T12:28:56.692Z,19.00
2018-11-11T12:31:25.988Z,18.80
2018-11-11T12:33:55.564Z,19.10
2018-11-11T12:36:24.833Z,19.40
2018-11-11T12:38:54.292Z,19.80
2018-11-11T12:41:23.529Z,20.40
2018-11-11T12:43:52.923Z,20.70
2018-11-11T12:46:22.195Z,20.70
2018-11-11T12:48:51.443Z,20.70
2018-11-11T12:51:20.792Z,20.60
2018-11-11T12:53:50.126Z,20.20
2018-11-11T12:56:19.436Z,20.20
2018-11-11T12:58:48.734Z,20.00
2018-11-11T13:01:18.025Z,19.90
2018-11-11T13:03:47.628Z,19.90
2018-11-11T13:06:17.010Z,19.70
2018-11-11T13:08:46.326Z,19.80
2018-11-11T13:11:15.656Z,19.70
2018-11-11T13:13:45.177Z,19.60
2018-11-11T13:16:14.461Z,19.50
2018-11-11T13:18:43.716Z,19.30
2018-11-11T13:21:12.956Z,19.50
2018-11-11T13:23:42.356Z,19.60
2018-11-11T13:26:11.626Z,19.60
2018-11-11T13:28:40.920Z,19.60
2018-11-11T13:31:10.151Z,19.60
2018-11-11T13:33:39.539Z,19.50
2018-11-11T13:36:08.901Z,19.40
2018-11-11T13:38:38.339Z,19.50
2018-11-11T13:41:07.650Z,19.50
2018-11-11T13:43:37.052Z,19.50
2018-11-11T13:46:06.297Z,19.40
2018-11-11T13:48:35.597Z,19.40
2018-11-11T13:51:04.965Z,19.40
2018-11-11T13:53:34.329Z,19.30
2018-11-11T13:56:03.631Z,19.20
2018-11-11T13:58:32.901Z,19.20
2018-11-11T14:01:02.176Z,19.10
2018-11-11T14:03:31.533Z,19.10
2018-11-11T14:06:00.764Z,19.10
2018-11-11T14:08:30.033Z,19.00
2018-11-11T14:10:59.948Z,18.90
2018-11-11T14:13:29.240Z,18.80
2018-11-11T14:15:58.503Z,18.80
2018-11-11T14:18:27.877Z,18.70
2018-11-11T14:20:57.045Z,18.70
2018-11-11T14:23:26.357Z,18.70
2018-11-11T14:25:55.682Z,18.70
2018-11-11T14:28:24.872Z,18.60
2018-11-11T14:30:54.144Z,18.60
2018-11-11T14:33:23.444Z,18.60
2018-11-11T14:35:52.808Z,18.40
2018-11-11T14:38:22.084Z,18.60
2018-11-11T14:40:51.349Z,18.50
2018-11-11T14:43:20.789Z,18.50
2018-11-11T14:45:50.066Z,18.50
2018-11-11T14:48:19.372Z,18.40
2018-11-11T14:50:48.638Z,18.30
2018-11-11T14:53:17.936Z,18.20
2018-11-11T14:55:47.168Z,18.20
2018-11-11T14:58:16.454Z,18.30
2018-11-11T15:00:45.740Z,18.30
2018-11-11T15:03:16.505Z,18.30
2018-11-11T15:05:45.848Z,18.40
2018-11-11T15:08:15.157Z,18.20
2018-11-11T15:10:44.489Z,18.10
2018-11-11T15:13:14.864Z,18.20
2018-11-11T15:15:44.336Z,18.20
2018-11-11T15:18:13.629Z,18.10
2018-11-11T15:20:42.989Z,18.20
2018-11-11T15:23:12.268Z,18.30
2018-11-11T15:25:41.535Z,18.20
2018-11-11T15:28:10.833Z,18.10
2018-11-11T15:30:40.438Z,18.10
2018-11-11T15:33:10.418Z,18.10
2018-11-11T15:35:39.666Z,18.20
2018-11-11T15:38:08.965Z,18.10
2018-11-11T15:40:39.059Z,18.00
2018-11-11T15:43:08.356Z,18.10
2018-11-11T15:45:37.764Z,18.00
2018-11-11T15:48:07.676Z,17.80
2018-11-11T15:50:37.428Z,17.70
2018-11-11T15:53:08.032Z,17.80
2018-11-11T15:55:38.384Z,17.90
2018-11-11T15:58:08.091Z,17.90
2018-11-11T16:00:40.971Z,17.80
2018-11-11T16:03:10.383Z,17.80
2018-11-11T16:05:39.650Z,17.80
2018-11-11T16:08:09.882Z,17.70
2018-11-11T16:10:39.133Z,17.70
2018-11-11T16:13:09.503Z,17.50
2018-11-11T16:15:40.258Z,17.50
2018-11-11T16:18:11.781Z,17.40
2018-11-11T16:20:41.076Z,17.40
2018-11-11T16:23:11.887Z,17.40
2018-11-11T16:25:41.235Z,17.40
2018-11-11T16:28:10.564Z,17.40
2018-11-11T16:30:39.880Z,17.50
2018-11-11T16:33:10.000Z,17.30
2018-11-11T16:35:39.300Z,17.40
2018-11-11T16:38:08.732Z,17.60
2018-11-11T16:40:41.667Z,17.30
2018-11-11T16:43:11.023Z,17.30
2018-11-11T16:45:40.257Z,17.30
2018-11-11T16:48:09.608Z,17.40
2018-11-11T16:50:39.204Z,17.30
2018-11-11T16:53:09.614Z,17.30
2018-11-11T16:55:39.490Z,17.40
2018-11-11T16:58:08.760Z,17.40
2018-11-11T17:00:38.687Z,17.40
2018-11-11T17:03:08.912Z,17.40
2018-11-11T17:05:38.816Z,17.50
2018-11-11T17:08:08.219Z,17.40
2018-11-11T17:10:38.457Z,17.40
2018-11-11T17:13:13.000Z,17.70
2018-11-11T17:15:42.357Z,17.60
2018-11-11T17:18:11.771Z,17.50
2018-11-11T17:20:41.100Z,17.50
2018-11-11T17:23:10.373Z,17.70
2018-11-11T17:25:39.676Z,17.80
2018-11-11T17:28:09.015Z,17.60
2018-11-11T17:30:38.328Z,17.30
2018-11-11T17:33:07.798Z,17.00
2018-11-11T17:35:37.149Z,16.80
2018-11-11T17:38:06.660Z,16.70
2018-11-11T17:40:35.952Z,16.50
2018-11-11T17:43:05.602Z,16.50
2018-11-11T17:45:34.890Z,16.60
2018-11-11T17:48:04.275Z,16.50
2018-11-11T17:50:34.228Z,16.50
2018-11-11T17:53:04.874Z,16.50
2018-11-11T17:55:34.286Z,16.50
2018-11-11T17:58:03.493Z,16.50
2018-11-11T18:00:33.101Z,16.50
2018-11-11T18:03:03.286Z,16.60
2018-11-11T18:05:33.012Z,16.50
2018-11-11T18:08:02.382Z,16.40
2018-11-11T18:10:31.661Z,16.30
2018-11-11T18:13:00.988Z,16.30
2018-11-11T18:15:31.512Z,16.30
2018-11-11T18:18:00.806Z,16.20
2018-11-11T18:20:31.504Z,16.20
2018-11-11T18:23:01.769Z,16.20
2018-11-11T18:25:31.048Z,16.10
2018-11-11T18:28:00.520Z,16.00
2018-11-11T18:30:33.976Z,16.30
2018-11-11T18:33:03.277Z,16.20
2018-11-11T18:35:32.574Z,16.00
2018-11-11T18:38:01.811Z,16.00
2018-11-11T18:40:31.149Z,16.00
2018-11-11T18:43:00.513Z,16.00
2018-11-11T18:45:30.503Z,15.90
2018-11-11T18:48:00.116Z,15.80
2018-11-11T18:50:30.702Z,15.90
2018-11-11T18:53:00.260Z,16.00
2018-11-11T18:55:29.843Z,16.20
2018-11-11T18:57:59.176Z,16.10
2018-11-11T19:00:29.974Z,16.00
2018-11-11T19:02:59.588Z,16.10
2018-11-11T19:05:29.318Z,15.90
2018-11-11T19:07:59.032Z,16.20
2018-11-11T19:10:29.707Z,16.10
2018-11-11T19:13:00.781Z,16.10
2018-11-11T19:15:30.115Z,16.10
2018-11-11T19:17:59.420Z,16.10
2018-11-11T19:20:29.209Z,16.00
2018-11-11T19:22:58.552Z,16.10
2018-11-11T19:25:29.261Z,16.30
2018-11-11T19:27:59.589Z,16.40
2018-11-11T19:30:29.650Z,16.30
2018-11-11T19:32:59.016Z,16.30
2018-11-11T19:35:28.272Z,16.20
2018-11-11T19:37:58.211Z,16.20
2018-11-11T19:40:28.643Z,16.10
2018-11-11T19:42:59.160Z,16.20
2018-11-11T19:45:29.569Z,16.60
2018-11-11T19:47:58.861Z,16.60
2018-11-11T19:50:29.029Z,16.60
2018-11-11T19:52:59.030Z,16.50
2018-11-11T19:55:28.472Z,16.40
2018-11-11T19:57:57.908Z,16.40
2018-11-11T20:00:28.964Z,16.30
2018-11-11T20:02:59.179Z,16.40
2018-11-11T20:05:28.548Z,16.40
2018-11-11T20:07:58.841Z,16.40
2018-11-11T20:10:28.718Z,16.30
2018-11-11T20:12:58.241Z,16.40
2018-11-11T20:15:29.589Z,16.30
2018-11-11T20:17:58.966Z,16.50
2018-11-11T20:20:30.015Z,16.50
2018-11-11T20:22:59.315Z,16.40
2018-11-11T20:25:28.709Z,16.40
2018-11-11T20:27:57.995Z,16.50
2018-11-11T20:30:28.686Z,16.80
2018-11-11T20:32:59.017Z,16.70
2018-11-11T20:35:29.699Z,16.70
2018-11-11T20:37:58.932Z,16.60
2018-11-11T20:40:28.713Z,16.40
2018-11-11T20:42:58.449Z,16.50
2018-11-11T20:45:29.831Z,16.50
2018-11-11T20:47:59.400Z,16.70
2018-11-11T20:50:29.748Z,16.60
2018-11-11T20:53:02.509Z,16.60
2018-11-11T20:55:31.865Z,16.70
2018-11-11T20:58:01.365Z,16.60
2018-11-11T21:00:33.113Z,16.30
2018-11-11T21:03:04.828Z,16.20
2018-11-11T21:05:34.304Z,16.10
2018-11-11T21:08:03.617Z,16.00
2018-11-11T21:10:32.967Z,16.10
2018-11-11T21:13:02.240Z,16.10
2018-11-11T21:15:32.238Z,15.90
2018-11-11T21:18:01.528Z,15.90
2018-11-11T21:20:31.953Z,16.10
2018-11-11T21:23:01.257Z,16.00
2018-11-11T21:25:30.554Z,15.90
2018-11-11T21:27:59.830Z,15.80
2018-11-11T21:30:30.298Z,15.90
2018-11-11T21:32:59.520Z,15.90
2018-11-11T21:35:28.785Z,15.80
2018-11-11T21:37:58.177Z,15.70
2018-11-11T21:40:27.792Z,15.70
2018-11-11T21:42:57.508Z,15.70
2018-11-11T21:45:27.762Z,15.70
2018-11-11T21:47:57.032Z,15.60
2018-11-11T21:50:27.250Z,15.80
2018-11-11T21:53:36.794Z,15.80
2018-11-11T21:56:06.799Z,15.70
2018-11-11T21:58:36.103Z,15.60
2018-11-11T22:01:05.849Z,15.50
2018-11-11T22:03:35.091Z,15.40
2018-11-11T22:06:04.394Z,15.40
2018-11-11T22:08:33.667Z,15.30
2018-11-11T22:11:02.901Z,15.20
2018-11-11T22:13:32.220Z,15.20
2018-11-11T22:16:01.492Z,15.30
2018-11-11T22:18:30.718Z,15.20
2018-11-11T22:20:59.941Z,15.20
2018-11-11T22:23:29.232Z,15.40
2018-11-11T22:25:58.472Z,15.40
2018-11-11T22:28:27.805Z,15.20
2018-11-11T22:30:57.021Z,15.20
2018-11-11T22:33:26.317Z,15.10
2018-11-11T22:35:55.544Z,15.10
2018-11-11T22:38:24.782Z,15.10
2018-11-11T22:40:54.013Z,15.10
2018-11-11T22:43:23.314Z,15.10
2018-11-11T22:45:52.532Z,15.00
2018-11-11T22:48:21.825Z,15.00
2018-11-11T22:50:51.060Z,15.10
2018-11-11T22:53:20.412Z,15.10
2018-11-11T22:55:49.641Z,15.00
2018-11-11T22:58:18.880Z,15.00
2018-11-11T23:00:54.105Z,15.20
2018-11-11T23:03:23.455Z,15.00
2018-11-11T23:05:52.702Z,15.00
2018-11-11T23:08:22.018Z,15.20
2018-11-11T23:10:51.244Z,15.20
2018-11-11T23:13:20.518Z,15.30
2018-11-11T23:15:49.797Z,15.30
2018-11-11T23:18:19.013Z,15.30
2018-11-11T23:20:48.249Z,15.30
2018-11-11T23:23:17.538Z,15.50
2018-11-11T23:25:46.745Z,15.70
2018-11-11T23:28:15.961Z,15.90
2018-11-11T23:30:45.212Z,15.70
2018-11-11T23:33:14.645Z,15.60
2018-11-11T23:35:43.865Z,15.70
2018-11-11T23:38:13.108Z,15.60
2018-11-11T23:40:42.360Z,15.80
2018-11-11T23:43:11.605Z,15.70
2018-11-11T23:45:40.837Z,15.60
2018-11-11T23:48:10.051Z,15.50
2018-11-11T23:50:39.255Z,15.40
2018-11-11T23:53:08.600Z,15.40
2018-11-11T23:55:37.826Z,15.40
2018-11-11T23:58:07.100Z,15.40
